sensor_id;sensor_type;location;lat;lon;timestamp;pressure;altitude;pressure_sealevel;temperature;humidity
13765;BME280;6953;48.810;9.204;2023-04-26T00:01:12;98558.47;;;8.30;88.93
13765;BME280;6953;48.810;9.204;2023-04-26T00:03:39;98719.75;;;9.22;89.05
13765;BME280;6953;48.810;9.204;2023-04-26T00:06:05;98820.78;;;9.81;89.61
13765;BME280;6953;48.810;9.204;2023-04-26T00:08:36;98523.25;;;8.00;89.58
13765;BME280;6953;48.810;9.204;2023-04-26T00:11:01;98596.41;;;8.38;90.23
13765;BME280;6953;48.810;9.204;2023-04-26T00:13:27;98799.50;;;9.51;90.69
13765;BME280;6953;48.810;9.204;2023-04-26T00:15:52;98819.03;;;9.63;91.42
13765;BME280;6953;48.810;9.204;2023-04-26T00:18:17;98579.31;;;8.12;91.39
13765;BME280;6953;48.810;9.204;2023-04-26T00:20:43;98733.00;;;9.00;92.07
13765;BME280;6953;48.810;9.204;2023-04-26T00:23:08;98853.97;;;9.43;92.14
13765;BME280;6953;48.810;9.204;2023-04-26T00:25:35;98828.00;;;9.39;92.55
13765;BME280;6953;48.810;9.204;2023-04-26T00:28:01;98625.38;;;8.14;92.61
13765;BME280;6953;48.810;9.204;2023-04-26T00:30:26;98861.75;;;9.27;92.63
13765;BME280;6953;48.810;9.204;2023-04-26T00:32:52;98822.50;;;9.27;92.76
13765;BME280;6953;48.810;9.204;2023-04-26T00:35:17;98821.69;;;9.25;92.47
13765;BME280;6953;48.810;9.204;2023-04-26T00:37:43;98554.31;;;7.68;92.46
13765;BME280;6953;48.810;9.204;2023-04-26T00:40:09;98480.53;;;7.24;92.27
13765;BME280;6953;48.810;9.204;2023-04-26T00:42:34;98814.97;;;9.19;92.47
13765;BME280;6953;48.810;9.204;2023-04-26T00:45:00;98823.75;;;9.18;92.17
13765;BME280;6953;48.810;9.204;2023-04-26T00:47:26;98796.84;;;8.96;91.54
13765;BME280;6953;48.810;9.204;2023-04-26T00:49:53;98792.47;;;8.97;92.15
13765;BME280;6953;48.810;9.204;2023-04-26T00:52:20;98627.94;;;7.96;92.13
13765;BME280;6953;48.810;9.204;2023-04-26T00:54:47;98831.75;;;9.15;92.35
13765;BME280;6953;48.810;9.204;2023-04-26T00:57:13;98831.09;;;9.10;92.57
13765;BME280;6953;48.810;9.204;2023-04-26T00:59:38;98803.69;;;8.99;92.57
13765;BME280;6953;48.810;9.204;2023-04-26T01:02:04;98841.91;;;9.03;92.99
13765;BME280;6953;48.810;9.204;2023-04-26T01:04:30;98814.16;;;8.99;93.39
13765;BME280;6953;48.810;9.204;2023-04-26T01:06:55;98858.53;;;9.02;92.96
13765;BME280;6953;48.810;9.204;2023-04-26T01:09:21;98838.63;;;8.98;93.71
13765;BME280;6953;48.810;9.204;2023-04-26T01:11:47;98824.41;;;8.85;93.93
13765;BME280;6953;48.810;9.204;2023-04-26T01:14:13;98878.28;;;8.89;93.92
13765;BME280;6953;48.810;9.204;2023-04-26T01:16:39;98835.06;;;8.80;94.16
13765;BME280;6953;48.810;9.204;2023-04-26T01:19:09;98551.63;;;7.10;93.83
13765;BME280;6953;48.810;9.204;2023-04-26T01:21:37;98625.44;;;7.33;94.26
13765;BME280;6953;48.810;9.204;2023-04-26T01:24:02;98822.34;;;8.53;94.93
13765;BME280;6953;48.810;9.204;2023-04-26T01:26:28;98723.00;;;7.92;94.63
13765;BME280;6953;48.810;9.204;2023-04-26T01:28:53;98537.09;;;6.83;94.81
13765;BME280;6953;48.810;9.204;2023-04-26T01:31:18;98830.34;;;8.48;94.61
13765;BME280;6953;48.810;9.204;2023-04-26T01:33:44;98567.06;;;6.94;94.24
13765;BME280;6953;48.810;9.204;2023-04-26T01:36:09;98537.19;;;6.81;94.12
13765;BME280;6953;48.810;9.204;2023-04-26T01:38:35;98859.56;;;8.38;94.39
13765;BME280;6953;48.810;9.204;2023-04-26T01:41:00;98611.63;;;7.10;94.84
13765;BME280;6953;48.810;9.204;2023-04-26T01:43:26;98844.31;;;8.27;94.84
13765;BME280;6953;48.810;9.204;2023-04-26T01:45:51;98828.72;;;8.26;94.87
13765;BME280;6953;48.810;9.204;2023-04-26T01:48:17;98819.97;;;8.27;94.68
13765;BME280;6953;48.810;9.204;2023-04-26T01:50:42;98557.47;;;6.73;93.72
13765;BME280;6953;48.810;9.204;2023-04-26T01:53:08;98855.31;;;8.35;92.81
13765;BME280;6953;48.810;9.204;2023-04-26T01:55:33;98686.88;;;7.61;92.33
13765;BME280;6953;48.810;9.204;2023-04-26T01:57:58;98552.56;;;6.87;92.05
13765;BME280;6953;48.810;9.204;2023-04-26T02:00:25;98611.97;;;7.22;91.19
13765;BME280;6953;48.810;9.204;2023-04-26T02:02:53;98827.88;;;8.45;90.90
13765;BME280;6953;48.810;9.204;2023-04-26T02:05:19;98831.41;;;8.44;90.91
13765;BME280;6953;48.810;9.204;2023-04-26T02:07:44;98824.66;;;8.39;90.93
13765;BME280;6953;48.810;9.204;2023-04-26T02:10:10;98826.44;;;8.38;90.45
13765;BME280;6953;48.810;9.204;2023-04-26T02:12:35;98713.31;;;7.74;91.79
13765;BME280;6953;48.810;9.204;2023-04-26T02:15:01;98857.81;;;8.38;91.74
13765;BME280;6953;48.810;9.204;2023-04-26T02:17:26;98832.56;;;8.37;92.76
13765;BME280;6953;48.810;9.204;2023-04-26T02:19:53;98832.00;;;8.31;92.58
13765;BME280;6953;48.810;9.204;2023-04-26T02:22:19;98824.38;;;8.25;93.15
13765;BME280;6953;48.810;9.204;2023-04-26T02:24:46;98819.53;;;8.16;93.95
13765;BME280;6953;48.810;9.204;2023-04-26T02:27:11;98828.31;;;8.14;94.36
13765;BME280;6953;48.810;9.204;2023-04-26T02:29:36;98858.06;;;8.11;95.23
13765;BME280;6953;48.810;9.204;2023-04-26T02:32:02;98811.50;;;7.99;95.92
13765;BME280;6953;48.810;9.204;2023-04-26T02:34:28;98760.69;;;7.65;95.71
13765;BME280;6953;48.810;9.204;2023-04-26T02:36:53;98831.56;;;7.99;96.24
13765;BME280;6953;48.810;9.204;2023-04-26T02:39:19;98496.28;;;5.96;96.61
13765;BME280;6953;48.810;9.204;2023-04-26T02:41:45;98777.75;;;7.52;97.51
13765;BME280;6953;48.810;9.204;2023-04-26T02:44:10;98839.34;;;7.79;97.76
13765;BME280;6953;48.810;9.204;2023-04-26T02:46:36;98833.53;;;7.72;98.19
13765;BME280;6953;48.810;9.204;2023-04-26T02:49:01;98837.16;;;7.68;99.65
13765;BME280;6953;48.810;9.204;2023-04-26T02:51:26;98554.94;;;6.05;99.25
13765;BME280;6953;48.810;9.204;2023-04-26T02:53:52;98836.91;;;7.74;99.97
13765;BME280;6953;48.810;9.204;2023-04-26T02:56:17;98837.44;;;7.82;100.00
13765;BME280;6953;48.810;9.204;2023-04-26T02:58:43;98853.06;;;7.84;100.00
13765;BME280;6953;48.810;9.204;2023-04-26T03:01:09;98866.00;;;7.87;100.00
13765;BME280;6953;48.810;9.204;2023-04-26T03:03:34;98840.94;;;7.83;100.00
13765;BME280;6953;48.810;9.204;2023-04-26T03:06:01;98850.50;;;7.82;100.00
13765;BME280;6953;48.810;9.204;2023-04-26T03:08:26;98585.97;;;6.33;100.00
13765;BME280;6953;48.810;9.204;2023-04-26T03:10:51;98552.31;;;6.06;100.00
13765;BME280;6953;48.810;9.204;2023-04-26T03:13:17;98867.69;;;7.66;100.00
13765;BME280;6953;48.810;9.204;2023-04-26T03:15:45;98824.75;;;7.52;100.00
13765;BME280;6953;48.810;9.204;2023-04-26T03:18:11;98751.19;;;6.98;100.00
13765;BME280;6953;48.810;9.204;2023-04-26T03:20:36;98622.78;;;6.24;100.00
13765;BME280;6953;48.810;9.204;2023-04-26T03:23:01;98837.19;;;7.45;100.00
13765;BME280;6953;48.810;9.204;2023-04-26T03:25:28;98836.56;;;7.39;100.00
13765;BME280;6953;48.810;9.204;2023-04-26T03:27:53;98827.63;;;7.23;100.00
13765;BME280;6953;48.810;9.204;2023-04-26T03:30:20;98636.66;;;6.02;100.00
13765;BME280;6953;48.810;9.204;2023-04-26T03:32:46;98842.59;;;7.18;100.00
13765;BME280;6953;48.810;9.204;2023-04-26T03:35:11;98646.44;;;5.96;100.00
13765;BME280;6953;48.810;9.204;2023-04-26T03:37:36;98848.31;;;7.05;100.00
13765;BME280;6953;48.810;9.204;2023-04-26T03:40:07;98576.41;;;5.39;100.00
13765;BME280;6953;48.810;9.204;2023-04-26T03:42:33;98841.03;;;6.90;100.00
13765;BME280;6953;48.810;9.204;2023-04-26T03:44:58;98843.06;;;6.82;100.00
13765;BME280;6953;48.810;9.204;2023-04-26T03:47:24;98718.19;;;6.03;100.00
13765;BME280;6953;48.810;9.204;2023-04-26T03:49:49;98840.41;;;6.59;100.00
13765;BME280;6953;48.810;9.204;2023-04-26T03:52:14;98535.63;;;4.64;100.00
13765;BME280;6953;48.810;9.204;2023-04-26T03:54:41;98844.63;;;6.37;100.00
13765;BME280;6953;48.810;9.204;2023-04-26T03:57:06;98845.81;;;6.28;100.00
13765;BME280;6953;48.810;9.204;2023-04-26T03:59:31;98861.03;;;6.15;100.00
13765;BME280;6953;48.810;9.204;2023-04-26T04:01:57;98744.78;;;5.60;100.00
13765;BME280;6953;48.810;9.204;2023-04-26T04:04:22;98557.84;;;4.46;100.00
13765;BME280;6953;48.810;9.204;2023-04-26T04:06:47;98500.22;;;4.07;100.00
13765;BME280;6953;48.810;9.204;2023-04-26T04:09:13;98599.97;;;4.56;100.00
13765;BME280;6953;48.810;9.204;2023-04-26T04:11:38;98835.78;;;5.91;100.00
13765;BME280;6953;48.810;9.204;2023-04-26T04:14:03;98502.25;;;3.97;100.00
13765;BME280;6953;48.810;9.204;2023-04-26T04:16:29;98840.69;;;5.72;100.00
13765;BME280;6953;48.810;9.204;2023-04-26T04:18:54;98657.41;;;4.74;100.00
13765;BME280;6953;48.810;9.204;2023-04-26T04:21:20;98837.44;;;5.93;100.00
13765;BME280;6953;48.810;9.204;2023-04-26T04:23:45;98832.44;;;5.87;100.00
13765;BME280;6953;48.810;9.204;2023-04-26T04:26:11;98833.25;;;5.89;100.00
13765;BME280;6953;48.810;9.204;2023-04-26T04:28:38;98849.28;;;6.02;100.00
13765;BME280;6953;48.810;9.204;2023-04-26T04:31:04;98766.56;;;5.58;100.00
13765;BME280;6953;48.810;9.204;2023-04-26T04:33:29;98849.06;;;6.09;100.00
13765;BME280;6953;48.810;9.204;2023-04-26T04:35:55;98807.63;;;5.76;100.00
13765;BME280;6953;48.810;9.204;2023-04-26T04:38:20;98851.16;;;6.24;100.00
13765;BME280;6953;48.810;9.204;2023-04-26T04:40:49;98759.00;;;5.78;100.00
13765;BME280;6953;48.810;9.204;2023-04-26T04:43:14;98860.06;;;6.43;100.00
13765;BME280;6953;48.810;9.204;2023-04-26T04:45:41;98618.97;;;5.11;100.00
13765;BME280;6953;48.810;9.204;2023-04-26T04:48:06;98859.44;;;6.61;100.00
13765;BME280;6953;48.810;9.204;2023-04-26T04:50:33;98858.28;;;6.69;100.00
13765;BME280;6953;48.810;9.204;2023-04-26T04:53:02;98682.88;;;5.70;100.00
13765;BME280;6953;48.810;9.204;2023-04-26T04:55:28;98860.34;;;6.84;100.00
13765;BME280;6953;48.810;9.204;2023-04-26T04:57:53;98864.44;;;6.91;100.00
13765;BME280;6953;48.810;9.204;2023-04-26T05:00:19;98858.00;;;7.01;100.00
13765;BME280;6953;48.810;9.204;2023-04-26T05:02:45;98863.75;;;7.11;100.00
13765;BME280;6953;48.810;9.204;2023-04-26T05:05:10;98910.97;;;7.26;100.00
13765;BME280;6953;48.810;9.204;2023-04-26T05:07:36;98870.22;;;7.46;100.00
13765;BME280;6953;48.810;9.204;2023-04-26T05:10:02;98869.59;;;7.63;100.00
13765;BME280;6953;48.810;9.204;2023-04-26T05:12:28;98852.63;;;7.73;100.00
13765;BME280;6953;48.810;9.204;2023-04-26T05:14:53;98629.97;;;6.64;100.00
13765;BME280;6953;48.810;9.204;2023-04-26T05:17:18;98830.09;;;7.92;100.00
13765;BME280;6953;48.810;9.204;2023-04-26T05:19:44;98809.75;;;8.00;100.00
13765;BME280;6953;48.810;9.204;2023-04-26T05:22:10;98799.78;;;8.09;100.00
13765;BME280;6953;48.810;9.204;2023-04-26T05:24:35;98890.03;;;8.79;100.00
13765;BME280;6953;48.810;9.204;2023-04-26T05:27:01;98597.75;;;7.29;100.00
13765;BME280;6953;48.810;9.204;2023-04-26T05:29:29;98850.84;;;9.17;100.00
13765;BME280;6953;48.810;9.204;2023-04-26T05:31:55;98895.66;;;10.05;100.00
13765;BME280;6953;48.810;9.204;2023-04-26T05:34:22;98888.28;;;10.99;100.00
13765;BME280;6953;48.810;9.204;2023-04-26T05:36:47;98910.97;;;11.66;96.81
13765;BME280;6953;48.810;9.204;2023-04-26T05:39:12;98894.69;;;11.90;91.18
13765;BME280;6953;48.810;9.204;2023-04-26T05:41:38;98893.69;;;12.08;89.54
13765;BME280;6953;48.810;9.204;2023-04-26T05:44:03;98645.91;;;10.98;87.60
13765;BME280;6953;48.810;9.204;2023-04-26T05:46:28;98894.78;;;12.80;84.06
13765;BME280;6953;48.810;9.204;2023-04-26T05:48:54;98909.44;;;13.56;78.94
13765;BME280;6953;48.810;9.204;2023-04-26T05:51:20;98901.22;;;14.43;72.86
13765;BME280;6953;48.810;9.204;2023-04-26T05:53:45;98663.44;;;13.68;70.17
13765;BME280;6953;48.810;9.204;2023-04-26T05:56:10;98824.47;;;14.97;66.91
13765;BME280;6953;48.810;9.204;2023-04-26T05:58:36;98892.47;;;15.82;65.14
13765;BME280;6953;48.810;9.204;2023-04-26T06:01:01;98925.88;;;16.57;63.75
13765;BME280;6953;48.810;9.204;2023-04-26T06:03:26;98717.25;;;15.90;61.38
13765;BME280;6953;48.810;9.204;2023-04-26T06:05:52;98829.47;;;17.26;60.39
13765;BME280;6953;48.810;9.204;2023-04-26T06:08:17;98891.81;;;18.63;55.58
13765;BME280;6953;48.810;9.204;2023-04-26T06:10:43;98720.28;;;17.96;51.33
13765;BME280;6953;48.810;9.204;2023-04-26T06:13:08;98900.75;;;19.66;50.21
13765;BME280;6953;48.810;9.204;2023-04-26T06:15:33;98906.69;;;19.99;48.79
13765;BME280;6953;48.810;9.204;2023-04-26T06:17:59;98851.91;;;19.86;48.18
13765;BME280;6953;48.810;9.204;2023-04-26T06:20:24;98739.72;;;19.60;45.05
13765;BME280;6953;48.810;9.204;2023-04-26T06:22:50;98915.81;;;20.45;44.60
13765;BME280;6953;48.810;9.204;2023-04-26T06:25:15;98915.94;;;19.54;45.37
13765;BME280;6953;48.810;9.204;2023-04-26T06:27:41;98951.75;;;18.98;45.81
13765;BME280;6953;48.810;9.204;2023-04-26T06:30:07;98753.09;;;18.06;45.31
13765;BME280;6953;48.810;9.204;2023-04-26T06:32:32;98916.09;;;19.83;44.49
13765;BME280;6953;48.810;9.204;2023-04-26T06:34:58;98928.38;;;20.73;41.91
13765;BME280;6953;48.810;9.204;2023-04-26T06:37:23;98908.50;;;21.15;39.12
13765;BME280;6953;48.810;9.204;2023-04-26T06:39:49;98935.19;;;21.43;37.90
13765;BME280;6953;48.810;9.204;2023-04-26T06:42:14;98944.97;;;21.71;35.41
13765;BME280;6953;48.810;9.204;2023-04-26T06:44:39;98939.91;;;22.23;34.94
13765;BME280;6953;48.810;9.204;2023-04-26T06:47:05;98934.78;;;22.66;31.98
13765;BME280;6953;48.810;9.204;2023-04-26T06:49:34;98951.16;;;23.25;31.70
13765;BME280;6953;48.810;9.204;2023-04-26T06:51:59;98737.78;;;21.69;30.23
13765;BME280;6953;48.810;9.204;2023-04-26T06:54:28;98984.63;;;22.94;29.64
13765;BME280;6953;48.810;9.204;2023-04-26T06:56:54;98955.06;;;23.48;29.65
13765;BME280;6953;48.810;9.204;2023-04-26T06:59:19;98719.66;;;22.94;28.87
13765;BME280;6953;48.810;9.204;2023-04-26T07:01:45;98963.50;;;24.88;26.92
13765;BME280;6953;48.810;9.204;2023-04-26T07:04:10;99000.75;;;24.91;24.79
13765;BME280;6953;48.810;9.204;2023-04-26T07:06:38;98963.88;;;25.09;25.58
13765;BME280;6953;48.810;9.204;2023-04-26T07:09:04;98895.25;;;25.14;25.70
13765;BME280;6953;48.810;9.204;2023-04-26T07:11:30;98907.00;;;25.69;25.25
13765;BME280;6953;48.810;9.204;2023-04-26T07:13:56;98872.44;;;25.42;24.97
13765;BME280;6953;48.810;9.204;2023-04-26T07:16:22;98960.94;;;25.59;23.53
13765;BME280;6953;48.810;9.204;2023-04-26T07:18:47;98769.31;;;24.71;23.32
13765;BME280;6953;48.810;9.204;2023-04-26T07:21:13;98955.75;;;25.90;23.81
13765;BME280;6953;48.810;9.204;2023-04-26T07:23:38;98943.81;;;25.36;24.27
13765;BME280;6953;48.810;9.204;2023-04-26T07:26:04;98783.28;;;24.18;24.63
13765;BME280;6953;48.810;9.204;2023-04-26T07:28:30;98936.41;;;25.70;24.64
13765;BME280;6953;48.810;9.204;2023-04-26T07:30:57;98949.06;;;26.40;24.05
13765;BME280;6953;48.810;9.204;2023-04-26T07:33:26;98954.19;;;27.34;22.17
13765;BME280;6953;48.810;9.204;2023-04-26T07:35:58;98954.50;;;27.61;20.62
13765;BME280;6953;48.810;9.204;2023-04-26T07:38:26;98966.25;;;28.05;20.22
13765;BME280;6953;48.810;9.204;2023-04-26T07:40:52;98947.81;;;27.94;20.34
13765;BME280;6953;48.810;9.204;2023-04-26T07:43:19;98754.22;;;26.71;21.21
13765;BME280;6953;48.810;9.204;2023-04-26T07:45:44;98968.22;;;27.74;20.76
13765;BME280;6953;48.810;9.204;2023-04-26T07:48:10;98973.88;;;26.74;21.49
13765;BME280;6953;48.810;9.204;2023-04-26T07:50:36;98963.44;;;27.40;20.70
13765;BME280;6953;48.810;9.204;2023-04-26T07:53:02;98958.13;;;28.57;20.35
13765;BME280;6953;48.810;9.204;2023-04-26T07:55:27;98992.47;;;27.97;20.56
13765;BME280;6953;48.810;9.204;2023-04-26T07:57:52;98792.91;;;26.56;20.54
13765;BME280;6953;48.810;9.204;2023-04-26T08:00:18;98974.44;;;27.97;20.23
13765;BME280;6953;48.810;9.204;2023-04-26T08:02:46;98954.34;;;26.18;21.86
13765;BME280;6953;48.810;9.204;2023-04-26T08:05:12;98726.56;;;23.05;24.26
13765;BME280;6953;48.810;9.204;2023-04-26T08:07:38;98954.13;;;23.74;25.54
13765;BME280;6953;48.810;9.204;2023-04-26T08:10:04;98967.81;;;22.57;26.87
13765;BME280;6953;48.810;9.204;2023-04-26T08:12:30;98945.44;;;21.38;29.01
13765;BME280;6953;48.810;9.204;2023-04-26T08:14:55;98925.34;;;21.34;28.98
13765;BME280;6953;48.810;9.204;2023-04-26T08:17:21;98700.19;;;21.97;26.87
13765;BME280;6953;48.810;9.204;2023-04-26T08:19:46;98712.97;;;24.55;23.41
13765;BME280;6953;48.810;9.204;2023-04-26T08:22:11;98954.50;;;28.35;20.34
13765;BME280;6953;48.810;9.204;2023-04-26T08:24:37;98972.28;;;29.79;19.26
13765;BME280;6953;48.810;9.204;2023-04-26T08:27:02;99023.81;;;31.01;17.35
13765;BME280;6953;48.810;9.204;2023-04-26T08:29:27;98996.56;;;31.69;16.55
13765;BME280;6953;48.810;9.204;2023-04-26T08:31:53;98965.81;;;31.43;16.02
13765;BME280;6953;48.810;9.204;2023-04-26T08:34:19;98997.25;;;31.31;16.88
13765;BME280;6953;48.810;9.204;2023-04-26T08:36:44;98830.25;;;30.89;16.34
13765;BME280;6953;48.810;9.204;2023-04-26T08:39:10;98933.50;;;32.06;16.77
13765;BME280;6953;48.810;9.204;2023-04-26T08:41:41;98990.19;;;34.16;15.80
13765;BME280;6953;48.810;9.204;2023-04-26T08:44:07;98999.91;;;35.15;15.15
13765;BME280;6953;48.810;9.204;2023-04-26T08:46:36;99029.84;;;34.61;14.58
13765;BME280;6953;48.810;9.204;2023-04-26T08:49:15;99014.53;;;32.80;16.02
13765;BME280;6953;48.810;9.204;2023-04-26T08:51:44;99016.53;;;30.68;17.01
13765;BME280;6953;48.810;9.204;2023-04-26T08:54:10;98992.28;;;28.64;19.60
13765;BME280;6953;48.810;9.204;2023-04-26T08:56:37;98987.28;;;26.82;21.40
13765;BME280;6953;48.810;9.204;2023-04-26T08:59:03;98767.09;;;23.60;22.63
13765;BME280;6953;48.810;9.204;2023-04-26T09:01:30;98962.47;;;22.57;25.36
13765;BME280;6953;48.810;9.204;2023-04-26T09:03:56;98948.09;;;21.57;26.77
13765;BME280;6953;48.810;9.204;2023-04-26T09:06:22;98712.97;;;19.71;27.75
13765;BME280;6953;48.810;9.204;2023-04-26T09:08:50;98924.16;;;20.71;28.93
13765;BME280;6953;48.810;9.204;2023-04-26T09:11:17;98840.16;;;20.27;29.62
13765;BME280;6953;48.810;9.204;2023-04-26T09:13:42;98839.69;;;19.74;29.15
13765;BME280;6953;48.810;9.204;2023-04-26T09:16:07;98919.22;;;19.67;30.13
13765;BME280;6953;48.810;9.204;2023-04-26T09:18:33;98910.91;;;19.31;31.10
13765;BME280;6953;48.810;9.204;2023-04-26T09:21:06;98894.66;;;20.04;30.42
13765;BME280;6953;48.810;9.204;2023-04-26T09:23:32;98905.16;;;20.45;29.70
13765;BME280;6953;48.810;9.204;2023-04-26T09:29:17;98894.25;;;20.77;29.78
13765;BME280;6953;48.810;9.204;2023-04-26T09:31:49;98849.19;;;20.74;29.69
13765;BME280;6953;48.810;9.204;2023-04-26T09:34:15;98888.69;;;20.98;28.59
13765;BME280;6953;48.810;9.204;2023-04-26T09:36:50;98653.16;;;19.94;27.97
13765;BME280;6953;48.810;9.204;2023-04-26T09:39:33;98893.47;;;20.95;28.88
13765;BME280;6953;48.810;9.204;2023-04-26T09:41:59;98885.25;;;20.49;30.32
13765;BME280;6953;48.810;9.204;2023-04-26T09:44:25;98819.19;;;19.65;30.90
13765;BME280;6953;48.810;9.204;2023-04-26T09:47:01;98628.91;;;18.19;31.35
13765;BME280;6953;48.810;9.204;2023-04-26T09:49:29;98788.75;;;18.87;32.58
13765;BME280;6953;48.810;9.204;2023-04-26T09:52:02;98872.06;;;19.28;32.82
13765;BME280;6953;48.810;9.204;2023-04-26T09:54:48;98875.19;;;19.13;33.15
13765;BME280;6953;48.810;9.204;2023-04-26T09:57:15;98876.56;;;18.96;33.36
13765;BME280;6953;48.810;9.204;2023-04-26T09:59:49;98863.22;;;18.76;33.69
13765;BME280;6953;48.810;9.204;2023-04-26T10:04:52;98879.53;;;18.51;34.34
13765;BME280;6953;48.810;9.204;2023-04-26T10:07:20;98864.31;;;18.53;34.39
13765;BME280;6953;48.810;9.204;2023-04-26T10:09:47;98824.03;;;19.09;32.92
13765;BME280;6953;48.810;9.204;2023-04-26T10:12:14;98821.63;;;20.07;31.78
13765;BME280;6953;48.810;9.204;2023-04-26T10:14:41;98809.75;;;22.68;26.40
13765;BME280;6953;48.810;9.204;2023-04-26T10:17:08;98904.16;;;25.15;24.14
13765;BME280;6953;48.810;9.204;2023-04-26T10:19:35;98760.41;;;24.47;23.01
13765;BME280;6953;48.810;9.204;2023-04-26T10:22:07;98925.91;;;26.23;21.10
13765;BME280;6953;48.810;9.204;2023-04-26T10:24:35;98931.34;;;26.15;20.88
13765;BME280;6953;48.810;9.204;2023-04-26T10:27:01;98607.59;;;24.06;21.09
13765;BME280;6953;48.810;9.204;2023-04-26T10:32:20;98919.84;;;30.35;17.45
13765;BME280;6953;48.810;9.204;2023-04-26T10:35:09;98952.53;;;31.99;15.53
13765;BME280;6953;48.810;9.204;2023-04-26T10:37:36;98939.88;;;30.80;17.04
13765;BME280;6953;48.810;9.204;2023-04-26T10:40:22;98953.66;;;30.79;16.44
13765;BME280;6953;48.810;9.204;2023-04-26T10:42:48;98948.97;;;29.57;17.60
13765;BME280;6953;48.810;9.204;2023-04-26T10:45:27;98960.28;;;28.32;18.33
13765;BME280;6953;48.810;9.204;2023-04-26T10:56:08;98715.34;;;23.93;21.97
13765;BME280;6953;48.810;9.204;2023-04-26T10:58:34;98892.44;;;23.92;22.77
13765;BME280;6953;48.810;9.204;2023-04-26T11:01:14;98825.97;;;22.13;24.08
13765;BME280;6953;48.810;9.204;2023-04-26T11:04:09;98886.25;;;21.62;25.46
13765;BME280;6953;48.810;9.204;2023-04-26T11:06:54;98874.22;;;21.29;27.06
13765;BME280;6953;48.810;9.204;2023-04-26T11:09:37;98885.19;;;20.98;27.51
13765;BME280;6953;48.810;9.204;2023-04-26T11:12:10;98786.16;;;20.73;28.04
13765;BME280;6953;48.810;9.204;2023-04-26T11:14:37;98891.16;;;21.76;27.41
13765;BME280;6953;48.810;9.204;2023-04-26T11:17:05;98808.22;;;21.68;25.84
13765;BME280;6953;48.810;9.204;2023-04-26T11:19:32;98841.75;;;22.78;25.46
13765;BME280;6953;48.810;9.204;2023-04-26T11:21:59;98808.34;;;23.67;23.78
13765;BME280;6953;48.810;9.204;2023-04-26T11:24:30;98870.59;;;25.34;21.72
13765;BME280;6953;48.810;9.204;2023-04-26T11:26:55;98695.03;;;25.96;20.17
13765;BME280;6953;48.810;9.204;2023-04-26T11:29:22;98816.09;;;26.87;19.50
13765;BME280;6953;48.810;9.204;2023-04-26T11:31:56;98662.78;;;26.63;20.02
13765;BME280;6953;48.810;9.204;2023-04-26T11:34:32;98876.84;;;28.52;18.28
13765;BME280;6953;48.810;9.204;2023-04-26T11:36:58;98875.28;;;29.13;18.14
13765;BME280;6953;48.810;9.204;2023-04-26T11:39:25;98874.75;;;30.55;17.52
13765;BME280;6953;48.810;9.204;2023-04-26T11:41:55;98893.81;;;31.98;16.00
13765;BME280;6953;48.810;9.204;2023-04-26T11:44:28;98724.31;;;31.43;14.72
13765;BME280;6953;48.810;9.204;2023-04-26T11:46:54;98839.72;;;30.53;16.78
13765;BME280;6953;48.810;9.204;2023-04-26T11:49:19;98684.91;;;29.96;17.14
13765;BME280;6953;48.810;9.204;2023-04-26T11:51:47;98870.16;;;32.95;15.07
13765;BME280;6953;48.810;9.204;2023-04-26T11:54:29;98883.41;;;34.02;13.45
13765;BME280;6953;48.810;9.204;2023-04-26T11:56:55;98840.00;;;34.42;13.04
13765;BME280;6953;48.810;9.204;2023-04-26T11:59:25;98889.09;;;33.45;14.06
13765;BME280;6953;48.810;9.204;2023-04-26T12:01:51;98815.03;;;32.75;14.15
13765;BME280;6953;48.810;9.204;2023-04-26T12:04:17;98880.81;;;33.89;13.61
13765;BME280;6953;48.810;9.204;2023-04-26T12:06:45;98890.53;;;34.45;12.97
13765;BME280;6953;48.810;9.204;2023-04-26T12:09:11;98855.81;;;34.52;12.59
13765;BME280;6953;48.810;9.204;2023-04-26T12:11:38;98833.50;;;35.09;12.25
13765;BME280;6953;48.810;9.204;2023-04-26T12:14:03;98877.41;;;36.00;12.56
13765;BME280;6953;48.810;9.204;2023-04-26T12:16:29;98875.53;;;35.19;12.47
13765;BME280;6953;48.810;9.204;2023-04-26T12:18:55;98870.69;;;34.20;13.36
13765;BME280;6953;48.810;9.204;2023-04-26T12:21:23;98871.41;;;34.27;13.53
13765;BME280;6953;48.810;9.204;2023-04-26T12:23:50;98868.56;;;34.40;13.80
13765;BME280;6953;48.810;9.204;2023-04-26T12:26:16;98796.56;;;34.29;13.49
13765;BME280;6953;48.810;9.204;2023-04-26T12:28:41;98871.97;;;34.89;13.57
13765;BME280;6953;48.810;9.204;2023-04-26T12:31:07;98874.34;;;34.08;13.57
13765;BME280;6953;48.810;9.204;2023-04-26T12:33:33;98811.25;;;33.86;13.25
13765;BME280;6953;48.810;9.204;2023-04-26T12:36:10;98819.22;;;35.47;12.43
13765;BME280;6953;48.810;9.204;2023-04-26T12:38:37;98687.66;;;35.05;12.33
13765;BME280;6953;48.810;9.204;2023-04-26T12:41:02;98882.91;;;36.97;11.28
13765;BME280;6953;48.810;9.204;2023-04-26T12:43:28;98744.72;;;35.06;11.61
13765;BME280;6953;48.810;9.204;2023-04-26T12:45:54;98834.03;;;32.81;14.08
13765;BME280;6953;48.810;9.204;2023-04-26T12:48:19;98793.72;;;32.02;14.88
13765;BME280;6953;48.810;9.204;2023-04-26T12:50:45;98846.19;;;32.79;14.64
13765;BME280;6953;48.810;9.204;2023-04-26T12:53:10;98829.88;;;33.09;14.00
13765;BME280;6953;48.810;9.204;2023-04-26T12:55:36;98810.25;;;32.20;14.27
13765;BME280;6953;48.810;9.204;2023-04-26T12:58:01;98675.50;;;31.30;14.40
13765;BME280;6953;48.810;9.204;2023-04-26T13:00:27;98838.19;;;33.76;13.27
13765;BME280;6953;48.810;9.204;2023-04-26T13:02:52;98840.84;;;34.25;13.27
13765;BME280;6953;48.810;9.204;2023-04-26T13:05:18;98847.28;;;33.39;13.56
13765;BME280;6953;48.810;9.204;2023-04-26T13:07:43;98805.69;;;32.64;14.84
13765;BME280;6953;48.810;9.204;2023-04-26T13:10:09;98838.38;;;33.50;13.56
13765;BME280;6953;48.810;9.204;2023-04-26T13:12:36;98640.75;;;33.67;12.21
13765;BME280;6953;48.810;9.204;2023-04-26T13:15:03;98655.88;;;35.44;12.27
13765;BME280;6953;48.810;9.204;2023-04-26T13:17:29;98789.66;;;37.03;11.36
13765;BME280;6953;48.810;9.204;2023-04-26T13:19:55;98846.06;;;36.76;10.86
13765;BME280;6953;48.810;9.204;2023-04-26T13:22:21;98839.41;;;35.06;13.03
13765;BME280;6953;48.810;9.204;2023-04-26T13:24:47;98826.94;;;33.11;14.15
13765;BME280;6953;48.810;9.204;2023-04-26T13:27:18;98831.78;;;31.18;15.34